Time;durP1;ratioP1;P1;durP2;ratioP2;P2;SDS_P1;SDS_P2;PMS_P1;PMS_P2;Temp;Humidity;BMP_temperature;BMP_pressure;BME280_temperature;BME280_humidity;BME280_pressure;Samples;Min_cycle;Max_cycle;Signal;HPM_P1;HPM_P2
2022/03/27 00:00:51;;;;;;;15.70;7.77;;;11.60;51.80;;;;;;5032057;28;20195;-78
2022/03/27 00:03:20;;;;;;;16.80;8.47;;;11.50;52.00;;;;;;5036072;28;20270;-78
2022/03/27 00:05:48;;;;;;;21.93;8.37;;;11.50;52.10;;;;;;5039165;28;20221;-78
2022/03/27 00:08:18;;;;;;;17.97;9.50;;;11.40;52.50;;;;;;5032499;28;20218;-79
2022/03/27 00:13:32;;;;;;;21.40;9.20;;;11.40;52.40;;;;;;5036922;28;20195;-78
2022/03/27 00:16:01;;;;;;;15.20;8.27;;;11.40;52.80;;;;;;5035936;28;20210;-78
2022/03/27 00:18:29;;;;;;;20.07;8.87;;;11.30;53.00;;;;;;5032391;28;20245;-78
2022/03/27 00:20:57;;;;;;;21.57;8.90;;;11.30;53.00;;;;;;5035040;28;20242;-78
2022/03/27 00:23:28;;;;;;;21.50;8.60;;;11.20;53.10;;;;;;5033719;28;20233;-79
2022/03/27 00:25:56;;;;;;;18.90;8.47;;;11.20;53.00;;;;;;5038586;28;20227;-78
2022/03/27 00:28:31;;;;;;;19.40;8.80;;;11.20;53.00;;;;;;5033678;28;20196;-79
2022/03/27 00:31:00;;;;;;;18.47;8.87;;;11.20;53.20;;;;;;5035458;28;20195;-78
2022/03/27 00:33:29;;;;;;;20.43;9.97;;;11.10;53.10;;;;;;5031249;28;20234;-78
2022/03/27 00:35:58;;;;;;;19.97;9.67;;;11.10;53.10;;;;;;5035717;28;20199;-78
2022/03/27 00:38:28;;;;;;;18.67;8.70;;;11.10;53.10;;;;;;5031460;28;20218;-78
2022/03/27 00:40:57;;;;;;;22.30;9.13;;;11.10;53.10;;;;;;5032781;28;20693;-78
2022/03/27 00:43:27;;;;;;;22.67;9.20;;;11.10;53.20;;;;;;5032626;28;20838;-77
2022/03/27 00:45:55;;;;;;;15.57;8.90;;;11.10;53.40;;;;;;5033896;28;20343;-77
2022/03/27 00:48:25;;;;;;;16.93;8.50;;;11.10;53.40;;;;;;5035876;28;20264;-77
2022/03/27 00:50:54;;;;;;;18.53;8.17;;;11.00;53.50;;;;;;5034691;28;20561;-77
2022/03/27 00:53:23;;;;;;;20.07;9.57;;;11.00;53.50;;;;;;5034352;28;20202;-77
2022/03/27 00:55:53;;;;;;;18.60;9.70;;;11.00;53.80;;;;;;5035210;28;20225;-77
2022/03/27 00:58:21;;;;;;;24.23;9.67;;;10.90;53.70;;;;;;5036566;28;21635;-77
2022/03/27 01:00:57;;;;;;;17.23;9.40;;;10.90;53.80;;;;;;5030592;28;20198;-77
2022/03/27 01:03:27;;;;;;;21.00;9.13;;;10.90;53.80;;;;;;5029435;28;20257;-78
2022/03/27 01:05:58;;;;;;;19.17;9.50;;;10.90;53.70;;;;;;5035531;28;22006;-77
2022/03/27 01:11:17;;;;;;;18.67;9.43;;;10.80;53.80;;;;;;5034610;28;20225;-77
2022/03/27 01:13:48;;;;;;;24.10;9.33;;;10.80;53.80;;;;;;5033048;28;20218;-77
2022/03/27 01:16:29;;;;;;;21.00;9.80;;;10.80;53.90;;;;;;5032553;28;20204;-77
2022/03/27 01:18:58;;;;;;;18.03;9.67;;;10.80;54.00;;;;;;5030508;28;21681;-78
2022/03/27 01:21:28;;;;;;;22.00;10.73;;;10.70;54.20;;;;;;5032854;28;20208;-77
2022/03/27 01:23:57;;;;;;;20.80;9.93;;;10.70;55.00;;;;;;5035467;28;20245;-77
2022/03/27 01:26:29;;;;;;;15.00;8.83;;;10.70;55.30;;;;;;5035327;28;21096;-77
2022/03/27 01:28:57;;;;;;;17.77;9.87;;;10.60;54.60;;;;;;5036704;28;20195;-77
2022/03/27 01:31:26;;;;;;;22.43;9.10;;;10.60;54.70;;;;;;5034407;28;20227;-77
2022/03/27 01:33:54;;;;;;;17.67;9.53;;;10.60;54.70;;;;;;5033600;28;20210;-77
2022/03/27 01:36:25;;;;;;;20.07;10.40;;;10.50;54.70;;;;;;5029948;28;21005;-77
2022/03/27 01:38:57;;;;;;;21.00;10.13;;;10.50;54.90;;;;;;5032782;28;20300;-78
2022/03/27 01:41:26;;;;;;;18.73;10.13;;;10.40;55.00;;;;;;5035349;28;20202;-78
2022/03/27 01:43:55;;;;;;;20.10;9.23;;;10.40;55.10;;;;;;5034201;28;20201;-78
2022/03/27 01:46:23;;;;;;;16.50;8.50;;;10.40;55.20;;;;;;5034802;28;20711;-78
2022/03/27 01:48:52;;;;;;;18.10;9.27;;;10.30;55.30;;;;;;5033789;28;20596;-78
2022/03/27 01:51:20;;;;;;;22.63;10.57;;;10.30;55.50;;;;;;5029072;28;20239;-78
2022/03/27 01:53:49;;;;;;;21.73;9.77;;;10.30;55.50;;;;;;5029975;28;20202;-78
2022/03/27 01:56:18;;;;;;;18.53;9.40;;;10.20;55.60;;;;;;5037179;28;20212;-78
2022/03/27 01:58:47;;;;;;;21.40;9.97;;;10.20;55.60;;;;;;5035297;28;20213;-78
2022/03/27 02:01:16;;;;;;;22.67;9.23;;;10.20;55.70;;;;;;5036097;28;20199;-77
2022/03/27 02:03:44;;;;;;;17.77;9.13;;;10.20;55.90;;;;;;5037639;28;20195;-78
2022/03/27 02:06:13;;;;;;;22.47;9.20;;;10.10;56.00;;;;;;5033448;28;20201;-78
2022/03/27 02:08:42;;;;;;;22.23;9.40;;;10.00;55.90;;;;;;5038290;28;20201;-76
2022/03/27 02:11:13;;;;;;;17.73;10.00;;;10.00;56.00;;;;;;5037174;28;20210;-77
2022/03/27 02:13:43;;;;;;;16.70;9.53;;;10.00;56.00;;;;;;5032935;28;20562;-77
2022/03/27 02:16:11;;;;;;;21.43;10.27;;;9.90;56.10;;;;;;5037187;28;20197;-78
2022/03/27 02:18:41;;;;;;;19.00;9.90;;;9.90;56.10;;;;;;5032549;28;20697;-77
2022/03/27 02:21:10;;;;;;;26.17;10.73;;;9.90;56.30;;;;;;5034307;28;20295;-77
2022/03/27 02:23:38;;;;;;;20.90;10.47;;;9.90;56.40;;;;;;5036135;28;20207;-77
2022/03/27 02:26:07;;;;;;;19.67;10.13;;;9.80;56.50;;;;;;5032947;28;20213;-78
2022/03/27 02:28:35;;;;;;;18.93;9.53;;;9.80;56.30;;;;;;5036399;28;20687;-78
2022/03/27 02:31:05;;;;;;;19.53;10.07;;;9.80;56.40;;;;;;5031653;28;20688;-77
2022/03/27 02:33:34;;;;;;;21.15;11.07;;;9.80;56.50;;;;;;5035657;28;20435;-77
2022/03/27 02:36:03;;;;;;;20.20;9.20;;;9.80;56.80;;;;;;5035753;28;20413;-78
2022/03/27 02:38:31;;;;;;;25.73;11.13;;;9.70;56.60;;;;;;5036812;28;20223;-78
2022/03/27 02:40:59;;;;;;;22.00;10.40;;;9.70;56.60;;;;;;5037689;28;20704;-77
2022/03/27 02:43:28;;;;;;;18.63;10.13;;;9.70;56.50;;;;;;5037310;28;20215;-78
2022/03/27 02:45:56;;;;;;;21.13;10.50;;;9.70;56.50;;;;;;5036074;28;20210;-78
2022/03/27 02:48:26;;;;;;;24.30;10.70;;;9.70;56.50;;;;;;5034232;28;20209;-78
2022/03/27 02:50:55;;;;;;;20.17;10.67;;;9.70;56.50;;;;;;5035944;28;20197;-77
2022/03/27 02:53:23;;;;;;;24.70;10.33;;;9.70;56.50;;;;;;5036160;28;20200;-76
2022/03/27 02:55:51;;;;;;;19.63;9.60;;;9.70;56.40;;;;;;5035124;28;20217;-78
2022/03/27 02:58:24;;;;;;;21.47;10.27;;;9.80;56.40;;;;;;5035331;28;20211;-77
2022/03/27 03:00:53;;;;;;;19.93;10.07;;;9.80;56.30;;;;;;5034839;28;20208;-77
2022/03/27 03:03:22;;;;;;;20.57;10.63;;;9.80;56.20;;;;;;5033661;28;20671;-77
2022/03/27 03:05:53;;;;;;;29.00;12.03;;;9.80;56.20;;;;;;5035830;28;20209;-77
2022/03/27 03:08:21;;;;;;;18.17;10.17;;;9.80;56.20;;;;;;5034348;28;20194;-77
2022/03/27 03:10:50;;;;;;;33.40;11.17;;;9.80;56.40;;;;;;5030478;28;20212;-78
2022/03/27 03:13:18;;;;;;;22.27;10.87;;;9.80;56.30;;;;;;5031446;28;20851;-78
2022/03/27 03:15:47;;;;;;;23.90;10.97;;;9.80;56.20;;;;;;5035050;28;20732;-78
2022/03/27 03:18:16;;;;;;;21.47;11.07;;;9.90;56.30;;;;;;5031642;28;20303;-78
2022/03/27 03:20:44;;;;;;;21.03;11.10;;;9.90;56.30;;;;;;5036049;28;20231;-78
2022/03/27 03:23:14;;;;;;;20.67;10.97;;;9.90;56.30;;;;;;5032112;28;20197;-79
2022/03/27 03:25:43;;;;;;;23.23;10.83;;;9.80;56.20;;;;;;5035943;28;20199;-78
2022/03/27 03:28:31;;;;;;;19.77;10.80;;;9.90;56.30;;;;;;5031416;28;20200;-77
2022/03/27 03:31:00;;;;;;;21.63;11.50;;;9.90;56.30;;;;;;5040661;28;20209;-78
2022/03/27 03:33:29;;;;;;;19.73;10.80;;;9.90;56.40;;;;;;5035276;28;20198;-78
2022/03/27 03:35:57;;;;;;;23.53;11.27;;;9.90;56.30;;;;;;5032007;28;20209;-78
2022/03/27 03:38:27;;;;;;;25.40;11.30;;;9.90;56.20;;;;;;5034383;28;20231;-78
2022/03/27 03:40:56;;;;;;;23.20;11.57;;;9.90;56.20;;;;;;5037037;28;20206;-78
2022/03/27 03:43:24;;;;;;;20.97;11.53;;;9.90;56.20;;;;;;5036175;28;20209;-78
2022/03/27 03:45:53;;;;;;;24.50;12.10;;;9.90;56.20;;;;;;5039475;28;20202;-78
2022/03/27 03:48:21;;;;;;;24.97;12.13;;;9.90;56.30;;;;;;5036463;28;20557;-78
2022/03/27 03:50:49;;;;;;;25.23;11.77;;;9.90;56.30;;;;;;5036170;28;20203;-77
2022/03/27 03:53:18;;;;;;;22.93;12.33;;;10.00;56.40;;;;;;5036679;28;20205;-79
2022/03/27 03:55:48;;;;;;;27.03;12.73;;;10.00;56.30;;;;;;5033677;28;20198;-78
2022/03/27 03:58:18;;;;;;;24.93;12.30;;;10.00;56.30;;;;;;5034297;28;20203;-78
2022/03/27 04:00:47;;;;;;;27.37;11.83;;;10.00;56.20;;;;;;5036377;28;20616;-77
2022/03/27 04:03:15;;;;;;;22.50;12.30;;;10.00;56.20;;;;;;5032561;28;20213;-78
2022/03/27 04:05:44;;;;;;;24.60;12.53;;;10.00;56.30;;;;;;5032528;28;20198;-78
2022/03/27 04:08:14;;;;;;;26.23;12.43;;;10.00;56.30;;;;;;5032067;28;20213;-78
2022/03/27 04:10:43;;;;;;;24.97;13.00;;;10.00;56.30;;;;;;5031801;28;20198;-78
2022/03/27 04:13:14;;;;;;;25.00;11.67;;;10.00;56.30;;;;;;5032392;28;20592;-79
2022/03/27 04:15:43;;;;;;;24.97;13.00;;;10.00;56.30;;;;;;5033889;28;20199;-78
2022/03/27 04:18:28;;;;;;;24.37;12.00;;;10.00;56.30;;;;;;5032271;28;20208;-78
2022/03/27 04:20:56;;;;;;;25.87;13.50;;;10.00;56.40;;;;;;5030828;28;20228;-78
2022/03/27 04:23:25;;;;;;;22.10;12.40;;;10.00;56.40;;;;;;5029376;28;20713;-79
2022/03/27 04:25:53;;;;;;;23.73;12.23;;;10.00;56.50;;;;;;5031434;28;20209;-79
2022/03/27 04:28:24;;;;;;;24.33;12.70;;;10.00;56.50;;;;;;5034432;28;20202;-78
2022/03/27 04:30:52;;;;;;;27.93;13.13;;;10.00;56.40;;;;;;5033157;28;20190;-78
2022/03/27 04:33:21;;;;;;;23.97;12.27;;;10.10;56.40;;;;;;5031868;28;20231;-77
2022/03/27 04:35:50;;;;;;;29.80;13.07;;;10.10;56.30;;;;;;5036157;28;20204;-78
2022/03/27 04:38:18;;;;;;;25.23;12.23;;;10.10;56.30;;;;;;5031072;28;20624;-79
2022/03/27 04:40:46;;;;;;;22.13;11.50;;;10.10;56.30;;;;;;5032022;28;20224;-78
2022/03/27 04:43:15;;;;;;;24.67;12.03;;;10.20;56.30;;;;;;5030800;28;20198;-78
2022/03/27 04:45:45;;;;;;;25.73;12.60;;;10.20;56.30;;;;;;5030991;28;20202;-78
2022/03/27 04:48:13;;;;;;;22.47;12.60;;;10.30;56.30;;;;;;5030024;28;20213;-78
2022/03/27 04:50:41;;;;;;;28.53;13.53;;;10.30;56.30;;;;;;5033616;28;20191;-78
2022/03/27 04:53:10;;;;;;;27.50;13.23;;;10.30;56.50;;;;;;5034721;28;20550;-79
2022/03/27 04:55:39;;;;;;;24.37;12.27;;;10.30;56.40;;;;;;5032280;28;20205;-78
2022/03/27 04:58:09;;;;;;;25.30;12.77;;;10.40;56.40;;;;;;5037983;28;20572;-77
2022/03/27 05:00:37;;;;;;;25.43;12.63;;;10.30;56.40;;;;;;5032136;28;20218;-79
2022/03/27 05:03:07;;;;;;;30.93;13.03;;;10.30;56.30;;;;;;5032369;28;20202;-78
2022/03/27 05:05:36;;;;;;;22.50;12.40;;;10.30;56.30;;;;;;5035867;28;20563;-78
2022/03/27 05:08:04;;;;;;;23.30;12.57;;;10.40;56.20;;;;;;5038563;28;20206;-78
2022/03/27 05:10:33;;;;;;;27.67;12.83;;;10.40;56.30;;;;;;5036689;28;20199;-78
2022/03/27 05:13:02;;;;;;;26.40;12.90;;;10.40;56.10;;;;;;5034327;28;20696;-77
2022/03/27 05:15:30;;;;;;;24.93;12.63;;;10.40;56.20;;;;;;5033668;28;20206;-77
2022/03/27 05:17:59;;;;;;;23.00;12.27;;;10.40;56.20;;;;;;5031932;28;20203;-78
2022/03/27 05:20:31;;;;;;;25.73;13.43;;;10.40;56.10;;;;;;5034420;28;20226;-78
2022/03/27 05:23:03;;;;;;;26.60;13.37;;;10.40;56.10;;;;;;5034322;28;20213;-79
2022/03/27 05:25:39;;;;;;;25.23;13.23;;;10.50;56.10;;;;;;5033922;28;20199;-77
2022/03/27 05:28:10;;;;;;;27.03;13.10;;;10.50;56.00;;;;;;5034322;28;20885;-79
2022/03/27 05:30:39;;;;;;;26.20;13.30;;;10.50;55.90;;;;;;5034957;28;20460;-78
2022/03/27 05:33:08;;;;;;;26.50;12.53;;;10.60;55.90;;;;;;5036694;28;20206;-77
2022/03/27 05:35:40;;;;;;;24.10;13.60;;;10.70;56.00;;;;;;5039102;28;20206;-77
2022/03/27 05:38:08;;;;;;;27.17;13.07;;;10.70;56.20;;;;;;5036529;28;20750;-78
2022/03/27 05:40:38;;;;;;;28.63;13.73;;;10.70;56.10;;;;;;5041378;28;20225;-77
2022/03/27 05:43:07;;;;;;;28.67;13.20;;;10.80;56.10;;;;;;5038204;28;20206;-77
2022/03/27 05:45:36;;;;;;;23.83;13.20;;;10.90;56.00;;;;;;5039428;28;20290;-77
2022/03/27 05:48:05;;;;;;;26.23;13.57;;;10.90;55.90;;;;;;5039734;28;20245;-76
2022/03/27 05:50:33;;;;;;;25.37;13.97;;;11.00;55.90;;;;;;5043091;28;20188;-78
2022/03/27 05:53:03;;;;;;;25.07;13.00;;;11.00;55.90;;;;;;5041867;28;20192;-78
2022/03/27 05:55:31;;;;;;;26.50;13.40;;;11.10;55.80;;;;;;5041277;28;20330;-77
2022/03/27 05:58:01;;;;;;;27.90;13.43;;;11.10;55.70;;;;;;5042720;28;20207;-80
2022/03/27 06:00:30;;;;;;;25.80;12.97;;;11.20;55.60;;;;;;5037513;28;20220;-79
2022/03/27 06:02:58;;;;;;;19.87;12.13;;;11.30;55.60;;;;;;5036954;28;20658;-78
2022/03/27 06:05:27;;;;;;;29.23;12.47;;;11.30;55.50;;;;;;5039856;28;20727;-79
2022/03/27 06:07:58;;;;;;;23.97;12.47;;;11.40;55.50;;;;;;5039264;28;20206;-79
2022/03/27 06:10:31;;;;;;;25.33;13.83;;;11.50;55.40;;;;;;5040913;28;20889;-79
2022/03/27 06:13:00;;;;;;;27.27;13.37;;;11.60;55.40;;;;;;5041477;28;20194;-78
2022/03/27 06:15:29;;;;;;;25.43;13.07;;;11.70;55.20;;;;;;5036933;28;20198;-78
2022/03/27 06:17:58;;;;;;;24.40;13.23;;;11.70;55.20;;;;;;5039809;28;20199;-77
2022/03/27 06:20:28;;;;;;;26.93;12.07;;;11.80;55.10;;;;;;5035183;28;20218;-77
2022/03/27 06:22:57;;;;;;;22.90;12.27;;;11.90;55.20;;;;;;5036611;28;20198;-77
2022/03/27 06:25:29;;;;;;;27.70;13.00;;;12.00;55.00;;;;;;5036706;28;20206;-77
2022/03/27 06:27:58;;;;;;;26.23;12.33;;;12.10;54.90;;;;;;5035984;28;20208;-77
2022/03/27 06:30:28;;;;;;;26.50;13.27;;;12.20;54.70;;;;;;5037854;28;20302;-79
2022/03/27 06:32:59;;;;;;;22.67;12.53;;;12.30;54.70;;;;;;5037339;28;20221;-78
2022/03/27 06:35:29;;;;;;;23.93;12.93;;;12.40;54.60;;;;;;5035532;28;20198;-78
2022/03/27 06:37:58;;;;;;;29.97;13.37;;;12.50;54.50;;;;;;5035733;28;20715;-79
2022/03/27 06:40:28;;;;;;;26.47;13.03;;;12.60;54.50;;;;;;5035436;28;20227;-78
2022/03/27 06:42:58;;;;;;;24.73;13.23;;;12.70;54.20;;;;;;5042734;28;20203;-78
2022/03/27 06:45:28;;;;;;;23.83;13.20;;;12.90;54.00;;;;;;5045045;28;20203;-77
2022/03/27 06:47:58;;;;;;;21.03;13.00;;;12.90;53.90;;;;;;5044021;28;20290;-78
2022/03/27 06:50:27;;;;;;;22.83;12.70;;;13.00;53.80;;;;;;5044134;28;20203;-79
2022/03/27 06:52:58;;;;;;;24.07;13.63;;;13.20;53.70;;;;;;5045484;28;20200;-78
2022/03/27 06:55:29;;;;;;;28.77;13.90;;;13.30;53.80;;;;;;5048715;28;20187;-78
2022/03/27 06:57:57;;;;;;;24.07;13.07;;;13.40;53.80;;;;;;5045101;28;20195;-78
2022/03/27 07:03:12;;;;;;;29.43;12.50;;;13.70;53.50;;;;;;5042197;28;20310;-78
2022/03/27 07:05:44;;;;;;;28.47;13.30;;;13.80;53.30;;;;;;5037056;28;20261;-78
2022/03/27 07:08:17;;;;;;;26.80;12.37;;;14.00;53.20;;;;;;5039878;28;20298;-79
2022/03/27 07:10:49;;;;;;;24.40;12.87;;;14.10;52.60;;;;;;5036552;28;20198;-77
2022/03/27 07:13:19;;;;;;;25.17;12.57;;;14.30;52.30;;;;;;5041062;28;20985;-78
2022/03/27 07:15:49;;;;;;;25.17;12.30;;;14.40;52.10;;;;;;5041518;28;20195;-78
2022/03/27 07:18:22;;;;;;;23.43;12.30;;;14.50;52.00;;;;;;5035709;28;20512;-78
2022/03/27 07:20:51;;;;;;;24.50;11.77;;;14.60;51.60;;;;;;5033279;28;20301;-78
2022/03/27 07:23:20;;;;;;;24.07;10.63;;;14.80;51.40;;;;;;5036338;28;20199;-77
2022/03/27 07:25:53;;;;;;;23.63;11.73;;;14.90;51.00;;;;;;5038088;28;20209;-77
2022/03/27 07:28:22;;;;;;;20.90;8.23;;;15.10;51.10;;;;;;5034112;28;20972;-78
2022/03/27 07:30:50;;;;;;;20.83;9.07;;;15.30;49.40;;;;;;5036253;28;20188;-77
2022/03/27 07:33:21;;;;;;;15.27;8.30;;;15.50;49.10;;;;;;5034630;28;20214;-78
2022/03/27 07:35:49;;;;;;;14.87;7.73;;;15.70;49.00;;;;;;5035342;28;20184;-78
2022/03/27 07:38:18;;;;;;;22.77;8.60;;;15.90;48.70;;;;;;5035959;28;20195;-78
2022/03/27 07:40:47;;;;;;;17.17;7.80;;;16.10;48.20;;;;;;5034679;28;20214;-78
2022/03/27 07:43:17;;;;;;;15.53;7.47;;;16.30;47.10;;;;;;5035291;28;20822;-78
2022/03/27 07:45:46;;;;;;;14.50;7.37;;;16.50;46.40;;;;;;5034700;28;20227;-78
2022/03/27 07:48:14;;;;;;;16.30;7.30;;;16.60;46.20;;;;;;5036940;28;20206;-80
2022/03/27 07:50:42;;;;;;;13.87;7.50;;;16.80;46.00;;;;;;5033901;28;20191;-78
2022/03/27 07:53:13;;;;;;;15.10;7.23;;;17.00;46.00;;;;;;5033905;28;20229;-78
2022/03/27 07:55:42;;;;;;;20.57;7.90;;;17.10;45.50;;;;;;5036011;28;20356;-79
2022/03/27 07:58:10;;;;;;;12.47;6.83;;;17.30;45.60;;;;;;5035709;28;20196;-78
2022/03/27 08:00:40;;;;;;;13.37;7.17;;;17.50;45.20;;;;;;5035199;28;20206;-76
2022/03/27 08:03:08;;;;;;;15.63;6.33;;;17.70;44.80;;;;;;5033496;28;20211;-78
2022/03/27 08:05:38;;;;;;;12.33;6.40;;;17.80;44.60;;;;;;5035630;28;20202;-77
2022/03/27 08:08:13;;;;;;;13.17;6.57;;;18.00;44.90;;;;;;5034613;28;20579;-76
2022/03/27 08:10:41;;;;;;;11.73;6.43;;;18.20;44.40;;;;;;5032430;28;20198;-77
2022/03/27 08:13:10;;;;;;;11.47;5.40;;;18.40;44.30;;;;;;5035741;28;20191;-76
2022/03/27 08:15:39;;;;;;;18.37;6.47;;;18.50;43.10;;;;;;5036452;28;20191;-76
2022/03/27 08:18:08;;;;;;;11.30;5.63;;;18.70;42.80;;;;;;5034316;28;20203;-78
2022/03/27 08:20:37;;;;;;;13.47;5.57;;;18.80;42.80;;;;;;5034636;28;20358;-77
2022/03/27 08:23:14;;;;;;;11.13;5.63;;;19.00;42.30;;;;;;5037099;28;20194;-78
2022/03/27 08:28:28;;;;;;;9.93;4.63;;;19.20;41.50;;;;;;5032774;28;20206;-77
2022/03/27 08:30:58;;;;;;;9.63;4.10;;;19.40;40.80;;;;;;5034180;28;20738;-77
2022/03/27 08:33:26;;;;;;;9.67;3.90;;;19.50;41.50;;;;;;5036576;28;20199;-77
2022/03/27 08:35:57;;;;;;;11.07;4.90;;;19.60;39.80;;;;;;5034495;28;20207;-75
2022/03/27 08:38:26;;;;;;;11.17;4.47;;;19.80;39.70;;;;;;5040183;28;20195;-76
2022/03/27 08:40:56;;;;;;;11.07;4.43;;;19.80;39.30;;;;;;5036034;28;20222;-77
2022/03/27 08:43:25;;;;;;;8.83;4.57;;;19.90;39.30;;;;;;5033278;28;20191;-77
2022/03/27 08:45:54;;;;;;;9.40;4.60;;;20.00;39.50;;;;;;5034407;28;20203;-76
2022/03/27 08:48:24;;;;;;;11.03;4.97;;;20.20;39.50;;;;;;5034724;28;20245;-77
2022/03/27 08:51:02;;;;;;;11.73;5.90;;;20.30;39.70;;;;;;5034580;28;20333;-75
2022/03/27 08:53:32;;;;;;;12.17;5.83;;;20.30;39.40;;;;;;5035750;28;20191;-81
2022/03/27 08:56:06;;;;;;;14.03;6.17;;;20.40;39.70;;;;;;5036166;28;20215;-78
2022/03/27 08:58:37;;;;;;;13.70;6.97;;;20.50;40.20;;;;;;5035556;28;20181;-81
2022/03/27 09:01:07;;;;;;;25.33;8.73;;;20.60;40.90;;;;;;5035119;28;20194;-79
2022/03/27 09:03:37;;;;;;;13.33;7.77;;;20.50;40.80;;;;;;5037250;28;20700;-80
2022/03/27 09:06:08;;;;;;;12.73;7.17;;;20.60;41.40;;;;;;5036881;28;20201;-78
2022/03/27 09:08:38;;;;;;;16.33;10.13;;;20.60;41.00;;;;;;5037932;28;20230;-77
2022/03/27 09:11:08;;;;;;;21.77;10.87;;;20.60;40.40;;;;;;5039354;28;20202;-76
2022/03/27 09:13:38;;;;;;;21.77;10.97;;;20.60;40.90;;;;;;5037383;28;20191;-78
2022/03/27 09:16:09;;;;;;;26.13;13.90;;;20.60;40.60;;;;;;5035265;28;20473;-78
2022/03/27 09:18:47;;;;;;;24.50;12.83;;;20.70;41.50;;;;;;5040404;28;20256;-78
2022/03/27 09:21:23;;;;;;;22.23;11.33;;;20.60;41.40;;;;;;5042244;28;20273;-80
2022/03/27 09:23:56;;;;;;;22.10;12.77;;;20.60;41.70;;;;;;5036903;28;20661;-77
2022/03/27 09:26:24;;;;;;;20.53;12.83;;;20.60;42.50;;;;;;5039875;28;20714;-76
2022/03/27 09:28:54;;;;;;;24.70;12.60;;;20.60;41.90;;;;;;5037158;28;20209;-78
2022/03/27 09:31:25;;;;;;;20.30;11.57;;;20.50;41.80;;;;;;5037746;28;20192;-78
2022/03/27 09:33:57;;;;;;;22.63;12.70;;;20.60;41.80;;;;;;5036187;28;20213;-79
2022/03/27 09:36:27;;;;;;;23.23;12.33;;;20.60;42.10;;;;;;5038419;28;20626;-78
2022/03/27 09:42:38;;;;;;;18.90;11.93;;;20.60;42.90;;;;;;5404946;22;20279;-76
2022/03/27 09:45:14;;;;;;;22.87;10.87;;;20.70;43.00;;;;;;5047227;28;20186;-76
2022/03/27 09:47:47;;;;;;;21.00;11.30;;;20.70;42.80;;;;;;5047933;28;20238;-76
2022/03/27 09:50:34;;;;;;;17.67;10.77;;;20.70;42.40;;;;;;5046907;28;20206;-76
2022/03/27 09:53:23;;;;;;;18.30;10.40;;;20.70;42.90;;;;;;5048107;28;20190;-77
2022/03/27 09:56:11;;;;;;;24.10;10.37;;;20.70;42.70;;;;;;5046181;28;20719;-75
2022/03/27 09:58:41;;;;;;;20.93;11.13;;;20.70;42.90;;;;;;5047600;28;20190;-76
2022/03/27 10:01:11;;;;;;;17.13;9.97;;;20.70;43.00;;;;;;5044238;28;20191;-78
2022/03/27 10:04:04;;;;;;;18.63;10.73;;;20.80;43.10;;;;;;5047968;28;20222;-78
2022/03/27 10:06:36;;;;;;;22.07;10.40;;;20.80;43.20;;;;;;5045930;28;20191;-77
2022/03/27 10:09:06;;;;;;;22.53;10.20;;;20.80;42.80;;;;;;5047145;28;20297;-77
2022/03/27 10:11:35;;;;;;;19.80;11.40;;;20.80;43.50;;;;;;5046845;28;20195;-77
2022/03/27 10:14:04;;;;;;;19.33;10.40;;;20.90;43.60;;;;;;5046798;28;20221;-78
2022/03/27 10:16:35;;;;;;;19.40;10.00;;;20.90;43.60;;;;;;5046533;28;20213;-78
2022/03/27 10:19:08;;;;;;;20.27;10.33;;;20.90;43.50;;;;;;5010979;28;20198;-77
2022/03/27 10:21:38;;;;;;;22.40;10.20;;;21.00;43.60;;;;;;5045631;28;20195;-78
2022/03/27 10:24:12;;;;;;;17.20;10.37;;;21.00;43.50;;;;;;5046617;28;20213;-78
2022/03/27 10:26:42;;;;;;;19.33;10.07;;;21.00;43.70;;;;;;5045733;28;20189;-79
2022/03/27 10:29:12;;;;;;;19.00;10.00;;;21.00;43.20;;;;;;5047166;28;20198;-78
2022/03/27 10:31:41;;;;;;;21.87;10.73;;;21.10;43.50;;;;;;5045910;28;20293;-77
2022/03/27 10:34:14;;;;;;;18.20;11.13;;;21.10;43.30;;;;;;5047151;28;20215;-77
2022/03/27 10:36:51;;;;;;;22.13;10.60;;;21.10;43.20;;;;;;5047116;28;20190;-79
2022/03/27 10:39:25;;;;;;;20.53;10.20;;;21.10;43.10;;;;;;5047499;28;20202;-78
2022/03/27 10:42:04;;;;;;;21.03;11.00;;;21.20;43.30;;;;;;5045041;28;20198;-77
2022/03/27 10:44:39;;;;;;;18.53;10.50;;;21.20;43.10;;;;;;5045656;28;20201;-78
2022/03/27 10:47:18;;;;;;;21.47;10.73;;;21.20;43.40;;;;;;5046982;28;20197;-78
2022/03/27 10:50:20;;;;;;;17.00;9.77;;;21.30;43.50;;;;;;5044931;28;20197;-79
2022/03/27 10:53:10;;;;;;;20.77;11.07;;;21.30;42.80;;;;;;5046592;28;20202;-77
2022/03/27 10:55:42;;;;;;;22.33;12.30;;;21.30;42.60;;;;;;5045332;28;20194;-80
2022/03/27 10:58:34;;;;;;;21.87;10.37;;;21.40;43.00;;;;;;5044925;28;20190;-81
2022/03/27 11:01:05;;;;;;;24.23;12.20;;;21.40;42.80;;;;;;5047453;28;20197;-77
2022/03/27 11:03:49;;;;;;;17.87;9.70;;;21.30;42.10;;;;;;5047069;28;20246;-75
2022/03/27 11:06:25;;;;;;;22.03;10.17;;;21.40;41.90;;;;;;5046137;28;20191;-78
2022/03/27 11:08:56;;;;;;;18.30;9.53;;;21.40;41.90;;;;;;5046590;28;20194;-77
2022/03/27 11:11:52;;;;;;;18.67;9.65;;;21.50;42.30;;;;;;5045340;28;20186;-78
2022/03/27 11:14:45;;;;;;;16.93;9.77;;;21.60;42.20;;;;;;5046638;28;20191;-78
2022/03/27 11:17:14;;;;;;;22.00;10.20;;;21.70;42.50;;;;;;5047342;28;20203;-77
2022/03/27 11:19:45;;;;;;;19.77;11.05;;;21.70;42.50;;;;;;5045165;28;20441;-77
2022/03/27 11:22:59;;;;;;;18.20;10.80;;;21.70;42.50;;;;;;5046431;28;20203;-76
2022/03/27 11:25:33;;;;;;;19.88;10.52;;;21.80;42.60;;;;;;5045560;28;20519;-77
2022/03/27 11:28:08;;;;;;;18.02;10.10;;;21.90;42.60;;;;;;5044356;28;20199;-76
2022/03/27 11:30:38;;;;;;;21.63;10.47;;;21.90;42.30;;;;;;5045775;28;20187;-76
2022/03/27 11:33:19;;;;;;;21.35;11.88;;;21.90;42.20;;;;;;5045535;28;20261;-77
2022/03/27 11:36:24;;;;;;;19.58;10.27;;;22.00;42.30;;;;;;5046022;28;20741;-77
2022/03/27 11:39:02;;;;;;;19.20;10.48;;;22.00;41.30;;;;;;4962384;28;20193;-75
2022/03/27 11:41:38;;;;;;;22.75;10.93;;;22.10;42.10;;;;;;5037123;28;21908;-77
2022/03/27 11:45:06;;;;;;;17.67;9.65;;;22.20;42.50;;;;;;5044582;28;20225;-75
2022/03/27 11:47:16;;;;;;;21.30;12.85;;;22.30;42.20;;;;;;5042797;28;20205;-77
2022/03/27 11:49:45;;;;;;;23.08;12.88;;;22.30;42.10;;;;;;5044644;28;20194;-76
2022/03/27 11:52:23;;;;;;;21.70;11.13;;;22.40;41.90;;;;;;5045238;28;20195;-76
2022/03/27 11:55:04;;;;;;;20.88;12.88;;;22.50;41.50;;;;;;5045731;28;20191;-76
2022/03/27 11:57:43;;;;;;;31.23;15.90;;;22.60;42.00;;;;;;5044838;28;20197;-75
2022/03/27 12:00:14;;;;;;;20.50;12.90;;;22.70;42.30;;;;;;5045348;28;20568;-76
2022/03/27 12:02:43;;;;;;;19.38;9.80;;;22.80;42.30;;;;;;5044542;28;20191;-76
2022/03/27 12:05:13;;;;;;;16.02;9.35;;;22.90;42.10;;;;;;5044708;28;20835;-77
2022/03/27 12:07:55;;;;;;;17.50;9.52;;;23.00;41.60;;;;;;5044868;28;20640;-76
2022/03/27 12:10:26;;;;;;;18.73;10.27;;;23.00;40.70;;;;;;5043954;28;20198;-77
2022/03/27 12:13:00;;;;;;;19.05;9.05;;;23.20;41.10;;;;;;5043297;28;20816;-76
2022/03/27 12:15:40;;;;;;;17.38;9.05;;;23.30;41.30;;;;;;5044073;28;20197;-75
2022/03/27 12:18:14;;;;;;;14.38;8.82;;;23.40;40.70;;;;;;5044379;28;20823;-77
2022/03/27 12:20:48;;;;;;;15.75;9.13;;;23.50;40.80;;;;;;5042234;28;21332;-76
2022/03/27 12:23:19;;;;;;;16.77;9.63;;;23.60;40.60;;;;;;5045265;28;20227;-76
2022/03/27 12:29:40;;;;;;;16.38;8.70;;;23.70;39.90;;;;;;5044838;28;20194;-76
2022/03/27 12:32:03;;;;;;;17.98;9.15;;;23.90;39.80;;;;;;5043231;28;20183;-74
2022/03/27 12:34:33;;;;;;;14.23;8.73;;;24.00;39.90;;;;;;5043603;28;20286;-75
2022/03/27 12:37:11;;;;;;;16.38;8.60;;;24.10;39.80;;;;;;5043908;28;20202;-75
2022/03/27 12:40:02;;;;;;;15.18;8.10;;;24.20;39.70;;;;;;5044388;28;20314;-76
2022/03/27 12:42:36;;;;;;;20.08;9.00;;;24.20;39.10;;;;;;5042322;28;20225;-77
2022/03/27 12:45:10;;;;;;;20.98;9.55;;;24.20;38.70;;;;;;5044650;28;20209;-76
2022/03/27 12:47:40;;;;;;;15.93;8.57;;;24.30;39.10;;;;;;5042861;28;20380;-76
2022/03/27 12:50:10;;;;;;;16.98;8.15;;;24.30;39.40;;;;;;5045066;28;20221;-77
2022/03/27 12:52:47;;;;;;;15.18;7.65;;;24.30;39.10;;;;;;5044297;28;20198;-77
2022/03/27 12:55:15;;;;;;;23.50;9.25;;;24.20;38.40;;;;;;5044350;28;20707;-77
2022/03/27 12:57:59;;;;;;;16.13;8.23;;;24.20;38.80;;;;;;5041751;28;20203;-77
2022/03/27 13:00:30;;;;;;;12.07;7.97;;;24.30;39.20;;;;;;5043874;28;20732;-78
2022/03/27 13:03:23;;;;;;;17.98;8.82;;;24.30;39.00;;;;;;5044202;28;20202;-75
2022/03/27 13:06:01;;;;;;;21.40;9.27;;;24.30;38.80;;;;;;5021034;28;20289;-75
2022/03/27 13:08:31;;;;;;;13.45;8.60;;;24.40;39.10;;;;;;5044895;28;20194;-76
2022/03/27 13:11:01;;;;;;;17.00;9.25;;;24.40;38.90;;;;;;5042873;28;20677;-76
2022/03/27 13:13:33;;;;;;;14.57;8.95;;;24.40;38.60;;;;;;5043087;28;21260;-76